Time;durP1;ratioP1;P1;durP2;ratioP2;P2;SDS_P1;SDS_P2;PMS_P1;PMS_P2;Temp;Humidity;BMP_temperature;BMP_pressure;BME280_temperature;BME280_humidity;BME280_pressure;Samples;Min_cycle;Max_cycle;Signal;HPM_P1;HPM_P2
2021/04/04 00:02:23;;;;;;;4.03;2.00;;;17.60;50.70;;;;;;4882354;29;20184;-61
2021/04/04 00:04:49;;;;;;;2.50;1.52;;;17.60;50.60;;;;;;4883319;29;20600;-62
2021/04/04 00:07:14;;;;;;;3.55;1.77;;;17.60;50.60;;;;;;4899901;29;20239;-63
2021/04/04 00:09:41;;;;;;;4.30;2.25;;;17.60;50.60;;;;;;4882205;29;20220;-72
2021/04/04 00:12:07;;;;;;;2.90;1.70;;;17.60;50.70;;;;;;4867041;29;20192;-63
2021/04/04 00:14:33;;;;;;;4.70;2.20;;;17.60;50.60;;;;;;4866965;29;20232;-63
2021/04/04 00:16:58;;;;;;;3.28;1.73;;;17.60;50.60;;;;;;4867071;29;20169;-64
2021/04/04 00:19:24;;;;;;;4.68;2.00;;;17.60;50.60;;;;;;4882787;29;20264;-74
2021/04/04 00:21:49;;;;;;;4.85;1.80;;;17.50;50.60;;;;;;4867645;29;20175;-69
2021/04/04 00:24:15;;;;;;;2.78;1.70;;;17.60;50.60;;;;;;4882293;29;20215;-68
2021/04/04 00:26:40;;;;;;;3.53;2.00;;;17.50;50.60;;;;;;4899365;29;20172;-62
2021/04/04 00:29:06;;;;;;;3.92;1.85;;;17.50;50.50;;;;;;4882793;29;20179;-63
2021/04/04 00:31:33;;;;;;;4.50;2.10;;;17.50;50.50;;;;;;4898715;29;20185;-62
2021/04/04 00:33:59;;;;;;;3.08;2.17;;;17.50;50.70;;;;;;4899314;29;20653;-71
2021/04/04 00:36:25;;;;;;;3.05;1.67;;;17.50;51.30;;;;;;4898690;29;20176;-64
2021/04/04 00:38:50;;;;;;;3.05;1.85;;;17.50;50.60;;;;;;4899219;29;20168;-63
2021/04/04 00:41:16;;;;;;;3.42;1.80;;;17.50;50.60;;;;;;4882781;29;20657;-64
2021/04/04 00:43:42;;;;;;;3.03;2.03;;;17.50;50.60;;;;;;4866156;29;20344;-73
2021/04/04 00:46:07;;;;;;;3.30;1.70;;;17.50;50.60;;;;;;4882564;29;20183;-65
2021/04/04 00:48:33;;;;;;;2.15;1.63;;;17.50;50.50;;;;;;4899086;29;20685;-63
2021/04/04 00:50:59;;;;;;;2.45;1.33;;;17.50;50.70;;;;;;4898659;29;20173;-67
2021/04/04 00:53:24;;;;;;;5.47;2.28;;;17.50;51.20;;;;;;4882384;29;20637;-64
2021/04/04 00:55:50;;;;;;;3.47;1.95;;;17.50;50.60;;;;;;4867016;29;20256;-72
2021/04/04 00:58:16;;;;;;;4.00;1.77;;;17.40;50.60;;;;;;4881756;29;20571;-67
2021/04/04 01:00:41;;;;;;;2.78;1.77;;;17.40;50.50;;;;;;4882007;29;20232;-73
2021/04/04 01:03:07;;;;;;;5.57;2.08;;;17.40;50.50;;;;;;4898944;29;20236;-62
2021/04/04 01:05:38;;;;;;;2.67;1.45;;;17.40;50.50;;;;;;4881167;29;20177;-73
2021/04/04 01:08:05;;;;;;;2.72;1.83;;;17.40;50.60;;;;;;4867485;29;20298;-72
2021/04/04 01:10:32;;;;;;;3.97;1.80;;;17.50;50.70;;;;;;4881804;29;20224;-63
2021/04/04 01:13:17;;;;;;;3.30;1.88;;;17.40;50.60;;;;;;4881409;29;20233;-63
2021/04/04 01:15:56;;;;;;;2.13;1.35;;;17.40;50.50;;;;;;4881829;29;20263;-64
2021/04/04 01:18:26;;;;;;;4.20;1.85;;;17.40;50.60;;;;;;4898459;29;20173;-69
2021/04/04 01:21:08;;;;;;;2.25;1.60;;;17.40;50.60;;;;;;4881255;29;20714;-72
2021/04/04 01:24:03;;;;;;;4.25;1.70;;;17.40;50.50;;;;;;4851794;29;20609;-63
2021/04/04 01:26:47;;;;;;;3.50;1.50;;;17.40;50.60;;;;;;4881992;29;20187;-62
2021/04/04 01:29:13;;;;;;;3.55;1.92;;;17.30;50.60;;;;;;4898570;29;20208;-65
2021/04/04 01:31:41;;;;;;;3.47;1.80;;;17.40;50.70;;;;;;4865812;29;20691;-62
2021/04/04 01:34:07;;;;;;;2.53;1.60;;;17.40;50.70;;;;;;4865512;29;20181;-63
2021/04/04 01:36:33;;;;;;;3.38;1.67;;;17.30;50.70;;;;;;4881538;29;20169;-63
2021/04/04 01:39:00;;;;;;;5.15;1.95;;;17.30;50.60;;;;;;4866130;29;20188;-68
2021/04/04 01:41:34;;;;;;;2.60;1.67;;;17.30;50.60;;;;;;4880921;29;20192;-70
2021/04/04 01:44:03;;;;;;;4.10;2.00;;;17.30;50.50;;;;;;4866890;29;20169;-72
2021/04/04 01:46:29;;;;;;;3.75;1.52;;;17.30;50.70;;;;;;4881656;29;20643;-64
2021/04/04 01:48:54;;;;;;;3.67;2.03;;;17.30;51.30;;;;;;4880957;29;20177;-72
2021/04/04 01:51:20;;;;;;;2.47;1.30;;;17.30;50.60;;;;;;4880987;29;20183;-63
2021/04/04 01:53:46;;;;;;;3.30;2.10;;;17.30;50.70;;;;;;4865327;29;20187;-63
2021/04/04 01:56:11;;;;;;;2.30;1.63;;;17.30;50.60;;;;;;4865771;29;20183;-72
2021/04/04 01:58:38;;;;;;;2.45;1.63;;;17.30;50.70;;;;;;4865519;29;20176;-62
2021/04/04 02:01:04;;;;;;;4.65;1.75;;;17.30;50.70;;;;;;4865466;29;20183;-62
2021/04/04 02:03:30;;;;;;;3.40;2.05;;;17.30;50.70;;;;;;4880997;29;20180;-74
2021/04/04 02:05:55;;;;;;;3.00;1.58;;;17.30;50.70;;;;;;4850263;29;20553;-62
2021/04/04 02:08:21;;;;;;;2.17;1.30;;;17.30;50.70;;;;;;4864722;29;20255;-71
2021/04/04 02:10:47;;;;;;;3.53;1.80;;;17.20;51.40;;;;;;4865462;29;20327;-62
2021/04/04 02:13:13;;;;;;;2.70;1.65;;;17.20;50.70;;;;;;4865656;29;20229;-62
2021/04/04 02:15:38;;;;;;;4.10;1.50;;;17.20;50.70;;;;;;4864847;29;20533;-66
2021/04/04 02:18:08;;;;;;;3.35;1.60;;;17.20;50.60;;;;;;4881083;29;20240;-73
2021/04/04 02:20:33;;;;;;;2.15;1.58;;;17.20;50.70;;;;;;4865431;29;20211;-68
2021/04/04 02:23:00;;;;;;;3.67;1.48;;;17.20;50.70;;;;;;4897214;29;20208;-72
2021/04/04 02:25:26;;;;;;;3.40;1.55;;;17.20;50.70;;;;;;4865234;29;20196;-67
2021/04/04 02:27:52;;;;;;;3.33;2.03;;;17.20;50.70;;;;;;4897427;29;20332;-71
2021/04/04 02:30:19;;;;;;;3.17;1.77;;;17.20;50.70;;;;;;4880383;29;20173;-63
2021/04/04 02:32:49;;;;;;;1.60;1.50;;;17.20;50.70;;;;;;4865647;29;20169;-63
2021/04/04 02:35:18;;;;;;;2.58;1.70;;;17.20;50.70;;;;;;4898527;29;20172;-63
2021/04/04 02:37:44;;;;;;;1.83;1.55;;;17.20;50.70;;;;;;4871508;29;20197;-72
2021/04/04 02:40:10;;;;;;;3.42;1.50;;;17.20;50.70;;;;;;4886989;29;20175;-65
2021/04/04 02:42:36;;;;;;;2.67;1.42;;;17.20;50.70;;;;;;4886871;29;20551;-64
2021/04/04 02:45:02;;;;;;;2.92;1.42;;;17.20;50.70;;;;;;4870737;29;20172;-64
2021/04/04 02:47:31;;;;;;;3.42;1.90;;;17.20;50.80;;;;;;4886850;29;20683;-73
2021/04/04 02:49:58;;;;;;;2.83;1.42;;;17.20;51.40;;;;;;4871492;29;20168;-63
2021/04/04 02:52:24;;;;;;;4.32;1.73;;;17.10;50.70;;;;;;4871146;29;20271;-74
2021/04/04 02:54:52;;;;;;;2.22;1.48;;;17.10;50.70;;;;;;4871290;29;20206;-72
2021/04/04 02:57:18;;;;;;;3.08;1.67;;;17.10;50.70;;;;;;4855454;29;20286;-62
2021/04/04 02:59:45;;;;;;;3.83;1.70;;;17.10;50.80;;;;;;4871516;29;20172;-72
2021/04/04 03:02:12;;;;;;;3.63;1.70;;;17.10;50.80;;;;;;4855998;29;20188;-63
2021/04/04 03:04:38;;;;;;;3.78;2.05;;;17.10;50.70;;;;;;4870599;29;20180;-71
2021/04/04 03:07:04;;;;;;;2.05;1.33;;;17.10;50.80;;;;;;4886835;29;20688;-62
2021/04/04 03:09:30;;;;;;;2.95;1.52;;;17.10;50.80;;;;;;4870924;29;20279;-70
2021/04/04 03:11:55;;;;;;;2.88;1.88;;;17.10;50.70;;;;;;4870645;29;20645;-62
2021/04/04 03:14:21;;;;;;;4.00;1.63;;;17.10;50.80;;;;;;4871087;29;20665;-72
2021/04/04 03:16:46;;;;;;;1.75;1.33;;;17.10;50.80;;;;;;4871415;29;20199;-64
2021/04/04 03:19:12;;;;;;;3.08;1.45;;;17.10;50.80;;;;;;4886134;29;20544;-63
2021/04/04 03:21:38;;;;;;;2.15;1.60;;;17.10;50.80;;;;;;4870932;29;20179;-73
2021/04/04 03:24:04;;;;;;;3.17;1.55;;;17.10;50.80;;;;;;4871037;29;20184;-72
2021/04/04 03:26:30;;;;;;;3.13;1.75;;;17.10;50.80;;;;;;4870376;29;20185;-63
2021/04/04 03:28:55;;;;;;;2.92;1.58;;;17.00;50.80;;;;;;4855560;29;20223;-72
2021/04/04 03:31:21;;;;;;;3.88;1.77;;;17.00;50.80;;;;;;4870884;29;20172;-62
2021/04/04 03:33:47;;;;;;;3.28;1.60;;;17.10;50.90;;;;;;4886048;29;20636;-62
2021/04/04 03:36:16;;;;;;;1.85;1.35;;;17.00;50.80;;;;;;4871009;29;20212;-63
2021/04/04 03:38:44;;;;;;;2.78;1.63;;;17.00;50.80;;;;;;4886233;29;20172;-64
2021/04/04 03:41:10;;;;;;;3.47;1.80;;;17.00;50.80;;;;;;4870418;29;20179;-70
2021/04/04 03:43:36;;;;;;;2.08;1.42;;;17.00;51.50;;;;;;4855361;29;20590;-63
2021/04/04 03:46:05;;;;;;;3.28;1.63;;;17.00;50.90;;;;;;4871011;29;20184;-63
2021/04/04 03:48:31;;;;;;;3.33;1.80;;;17.00;50.80;;;;;;4867614;29;20235;-64
2021/04/04 03:50:57;;;;;;;3.65;1.58;;;17.00;50.80;;;;;;4868108;29;20213;-72
2021/04/04 03:53:25;;;;;;;2.67;1.48;;;17.00;50.80;;;;;;4867163;29;20188;-73
2021/04/04 03:55:54;;;;;;;2.85;1.85;;;17.00;50.80;;;;;;4868050;29;20169;-70
2021/04/04 03:58:22;;;;;;;4.13;1.85;;;17.00;50.80;;;;;;4868007;29;20685;-63
2021/04/04 04:00:48;;;;;;;2.78;1.50;;;17.00;50.80;;;;;;4882698;29;20215;-63
2021/04/04 04:03:14;;;;;;;3.13;1.40;;;17.00;50.80;;;;;;4883374;29;20204;-62
2021/04/04 04:05:40;;;;;;;3.05;1.80;;;17.00;50.90;;;;;;4867591;29;20177;-69
2021/04/04 04:08:06;;;;;;;3.50;1.63;;;16.90;50.90;;;;;;4867232;29;20271;-62
2021/04/04 04:10:31;;;;;;;3.35;1.45;;;17.00;51.00;;;;;;4867181;29;20224;-68
2021/04/04 04:12:57;;;;;;;3.13;1.45;;;16.90;51.50;;;;;;4867651;29;20196;-63
2021/04/04 04:15:23;;;;;;;2.90;1.55;;;16.90;50.80;;;;;;4866873;29;20231;-65
2021/04/04 04:17:49;;;;;;;2.42;1.25;;;16.90;50.80;;;;;;4867751;29;20599;-62
2021/04/04 04:20:14;;;;;;;4.45;1.60;;;16.90;50.90;;;;;;4867565;29;20176;-73
2021/04/04 04:22:40;;;;;;;2.25;1.27;;;16.90;50.80;;;;;;4898731;29;20224;-63
2021/04/04 04:25:07;;;;;;;3.25;1.55;;;16.90;50.80;;;;;;4867465;29;20184;-70
2021/04/04 04:27:32;;;;;;;1.30;1.10;;;16.90;50.80;;;;;;4851633;29;20219;-74
2021/04/04 04:29:59;;;;;;;1.30;1.20;;;16.90;50.90;;;;;;4866761;29;20206;-63
2021/04/04 04:32:25;;;;;;;2.22;1.15;;;16.90;50.90;;;;;;4867409;29;20173;-68
2021/04/04 04:34:50;;;;;;;2.05;1.17;;;16.90;50.90;;;;;;4851675;29;20232;-70
2021/04/04 04:37:16;;;;;;;3.38;1.52;;;16.90;50.90;;;;;;4866862;29;20231;-63
2021/04/04 04:39:42;;;;;;;3.35;1.80;;;16.90;50.90;;;;;;4867141;29;20580;-69
2021/04/04 04:42:11;;;;;;;2.53;1.63;;;16.90;50.80;;;;;;4867168;29;20271;-71
2021/04/04 04:44:38;;;;;;;1.40;1.30;;;16.90;50.90;;;;;;4866384;29;20579;-64
2021/04/04 04:47:04;;;;;;;2.10;1.25;;;16.90;50.90;;;;;;4867210;29;20223;-72
2021/04/04 04:49:30;;;;;;;3.17;2.00;;;16.90;50.80;;;;;;4882333;29;20637;-73
2021/04/04 04:51:55;;;;;;;2.33;1.38;;;16.90;51.00;;;;;;4881958;29;20168;-63
2021/04/04 04:54:21;;;;;;;3.35;1.40;;;16.90;50.90;;;;;;4851204;29;20661;-63
2021/04/04 04:56:47;;;;;;;2.15;1.30;;;16.90;51.60;;;;;;4866351;29;20185;-72
2021/04/04 04:59:12;;;;;;;2.50;1.40;;;16.80;50.90;;;;;;4866481;29;20186;-73
2021/04/04 05:01:43;;;;;;;2.10;1.30;;;16.80;50.90;;;;;;4866938;29;21056;-64
2021/04/04 05:04:08;;;;;;;1.63;1.40;;;16.80;50.90;;;;;;4881585;29;20177;-62
2021/04/04 05:06:34;;;;;;;3.55;1.70;;;16.80;50.90;;;;;;4898940;29;20436;-62
2021/04/04 05:08:59;;;;;;;2.60;1.30;;;16.80;50.90;;;;;;4866296;29;20234;-70
2021/04/04 05:11:25;;;;;;;3.58;1.45;;;16.80;50.80;;;;;;4850471;29;20181;-66
2021/04/04 05:13:51;;;;;;;2.33;1.13;;;16.90;50.70;;;;;;4851089;29;20223;-71
2021/04/04 05:16:16;;;;;;;1.33;1.10;;;17.00;50.80;;;;;;4866688;29;20176;-70
2021/04/04 05:18:47;;;;;;;2.58;1.42;;;17.00;50.70;;;;;;4897871;29;20186;-72
2021/04/04 05:21:12;;;;;;;2.25;1.05;;;17.20;50.60;;;;;;4881997;29;20168;-64
2021/04/04 05:23:38;;;;;;;3.58;1.30;;;17.30;50.40;;;;;;4850823;29;20635;-71
2021/04/04 05:26:03;;;;;;;2.45;1.45;;;17.60;50.10;;;;;;4865845;29;20203;-72
2021/04/04 05:28:30;;;;;;;2.42;1.20;;;17.80;49.90;;;;;;4865982;29;20240;-63
2021/04/04 05:31:03;;;;;;;1.83;1.08;;;17.90;50.20;;;;;;4881666;29;20184;-63
2021/04/04 05:33:30;;;;;;;2.03;0.98;;;18.10;49.30;;;;;;4850245;29;20672;-63
2021/04/04 05:36:00;;;;;;;2.58;1.38;;;18.20;49.20;;;;;;4881419;29;20173;-65
2021/04/04 05:38:26;;;;;;;2.33;1.10;;;18.20;48.90;;;;;;4866460;29;20637;-69
2021/04/04 05:40:52;;;;;;;0.82;0.82;;;18.30;48.90;;;;;;4865403;29;20192;-66
2021/04/04 05:43:17;;;;;;;1.10;0.93;;;18.40;48.70;;;;;;4850621;29;20180;-65
2021/04/04 05:46:03;;;;;;;2.35;1.20;;;18.50;48.50;;;;;;4850147;29;20187;-71
2021/04/04 05:48:39;;;;;;;1.50;1.10;;;18.60;48.20;;;;;;4881108;29;20216;-64
2021/04/04 05:51:34;;;;;;;2.42;1.15;;;18.70;48.20;;;;;;4881431;29;20176;-64
2021/04/04 05:54:25;;;;;;;2.17;1.00;;;18.80;48.10;;;;;;4882418;29;20194;-64
2021/04/04 05:56:51;;;;;;;2.55;1.13;;;18.80;48.00;;;;;;4898018;29;20205;-71
2021/04/04 05:59:39;;;;;;;1.27;0.73;;;18.80;47.90;;;;;;4881458;29;20667;-66
2021/04/04 06:02:30;;;;;;;1.88;1.05;;;18.90;47.90;;;;;;4866683;29;20653;-73
2021/04/04 06:05:02;;;;;;;3.08;1.33;;;18.80;47.90;;;;;;4881136;29;20232;-70
2021/04/04 06:07:49;;;;;;;2.70;1.20;;;18.70;48.10;;;;;;4865167;29;20259;-64
2021/04/04 06:10:30;;;;;;;1.38;0.82;;;18.70;48.30;;;;;;4896929;29;20220;-72
2021/04/04 06:13:18;;;;;;;1.42;1.10;;;18.60;48.30;;;;;;4882843;29;20560;-64
2021/04/04 06:15:56;;;;;;;0.95;0.85;;;18.50;48.50;;;;;;4882096;29;20173;-64
2021/04/04 06:18:31;;;;;;;3.22;1.17;;;18.40;48.60;;;;;;4865393;29;20240;-63
2021/04/04 06:21:09;;;;;;;1.95;1.38;;;18.30;48.80;;;;;;4897302;29;20183;-64
2021/04/04 06:23:58;;;;;;;1.33;1.15;;;18.20;48.90;;;;;;4865882;29;20591;-71
2021/04/04 06:27:06;;;;;;;2.17;1.17;;;18.20;49.10;;;;;;4896913;29;20264;-63
2021/04/04 06:30:02;;;;;;;1.35;1.05;;;18.10;49.10;;;;;;4897171;29;20165;-63
2021/04/04 06:32:30;;;;;;;3.22;1.20;;;18.00;49.20;;;;;;4897278;29;20187;-62
2021/04/04 06:34:57;;;;;;;2.35;1.10;;;18.00;49.40;;;;;;4880658;29;20180;-72
2021/04/04 06:37:54;;;;;;;1.40;0.80;;;18.00;50.10;;;;;;4864697;29;20177;-63
2021/04/04 06:40:30;;;;;;;3.15;1.00;;;18.00;49.50;;;;;;4897230;29;20173;-64
2021/04/04 06:43:24;;;;;;;1.98;0.90;;;17.90;49.50;;;;;;4896907;29;20179;-64
2021/04/04 06:46:28;;;;;;;2.45;1.05;;;17.90;49.50;;;;;;4880749;29;20177;-64
2021/04/04 06:49:12;;;;;;;1.30;0.80;;;17.90;49.50;;;;;;4897341;29;20683;-67
2021/04/04 06:51:46;;;;;;;2.25;1.10;;;18.00;49.60;;;;;;4897128;29;20243;-75
2021/04/04 06:54:41;;;;;;;1.85;1.13;;;18.00;49.50;;;;;;4897171;29;20189;-63
2021/04/04 06:57:19;;;;;;;1.70;1.00;;;18.00;49.50;;;;;;4857781;29;20196;-63
2021/04/04 07:00:11;;;;;;;1.38;1.17;;;18.00;49.50;;;;;;4865847;29;20169;-63
2021/04/04 07:03:05;;;;;;;2.13;0.88;;;18.00;49.50;;;;;;4882098;29;20672;-69
2021/04/04 07:05:32;;;;;;;2.08;0.90;;;17.90;49.50;;;;;;4879576;29;20255;-63
2021/04/04 07:07:58;;;;;;;0.85;0.68;;;17.90;49.50;;;;;;4865196;29;20216;-62
2021/04/04 07:10:32;;;;;;;1.83;1.15;;;17.80;49.60;;;;;;4896207;29;20635;-67
2021/04/04 07:13:12;;;;;;;2.38;1.10;;;17.80;49.60;;;;;;4897111;29;20644;-66
2021/04/04 07:16:15;;;;;;;1.85;1.20;;;17.80;49.90;;;;;;4864493;29;20184;-71
2021/04/04 07:19:04;;;;;;;2.97;1.20;;;17.80;50.10;;;;;;4896139;29;20180;-68
2021/04/04 07:21:57;;;;;;;2.88;1.35;;;17.90;50.10;;;;;;4880463;29;20169;-71
2021/04/04 07:24:35;;;;;;;3.75;1.75;;;17.90;50.30;;;;;;4883014;29;20544;-69
2021/04/04 07:27:06;;;;;;;2.70;1.10;;;17.90;50.40;;;;;;4900418;29;20526;-67
2021/04/04 07:30:02;;;;;;;2.13;1.13;;;18.00;50.40;;;;;;4900295;29;20649;-67
2021/04/04 07:32:46;;;;;;;11.10;1.33;;;17.90;50.40;;;;;;4896397;29;20172;-64
2021/04/04 07:35:18;;;;;;;2.35;1.30;;;17.90;50.50;;;;;;4874979;29;20608;-65
2021/04/04 07:37:46;;;;;;;3.25;1.30;;;17.90;50.60;;;;;;4858856;29;20170;-71
2021/04/04 07:40:19;;;;;;;1.73;0.95;;;17.80;50.60;;;;;;4888789;29;20208;-66
2021/04/04 07:42:50;;;;;;;1.38;1.10;;;17.90;50.70;;;;;;4858687;29;20172;-65
2021/04/04 07:45:38;;;;;;;2.25;1.30;;;17.90;50.80;;;;;;4870347;29;20181;-66
2021/04/04 07:48:25;;;;;;;2.08;1.20;;;17.90;50.80;;;;;;4887641;29;20253;-73
2021/04/04 07:51:07;;;;;;;2.40;1.42;;;17.90;50.80;;;;;;4873447;29;20168;-67
2021/04/04 07:53:36;;;;;;;2.83;1.30;;;17.90;50.80;;;;;;4873915;29;20669;-64
2021/04/04 07:56:31;;;;;;;2.28;1.00;;;17.90;50.80;;;;;;4875109;29;20185;-67
2021/04/04 07:59:06;;;;;;;1.80;1.10;;;17.90;50.90;;;;;;4859230;29;20567;-65
2021/04/04 08:02:10;;;;;;;3.13;1.48;;;17.90;50.90;;;;;;4883648;29;20183;-65
2021/04/04 08:04:45;;;;;;;5.50;1.42;;;17.90;50.90;;;;;;4878778;29;20188;-77
2021/04/04 08:07:30;;;;;;;2.13;0.82;;;17.90;51.10;;;;;;4899337;29;20208;-68
2021/04/04 08:10:09;;;;;;;3.33;1.17;;;17.90;51.10;;;;;;4875296;29;20301;-74
2021/04/04 08:12:54;;;;;;;2.13;1.15;;;17.90;51.40;;;;;;4897282;29;20183;-66
2021/04/04 08:16:01;;;;;;;3.75;1.35;;;17.90;51.50;;;;;;4880811;29;20236;-69
2021/04/04 08:18:27;;;;;;;2.00;1.17;;;18.00;51.40;;;;;;4890622;29;20188;-66
2021/04/04 08:20:54;;;;;;;3.47;1.00;;;18.10;51.50;;;;;;4881193;29;20183;-67
2021/04/04 08:23:36;;;;;;;2.53;1.35;;;18.10;51.40;;;;;;4897172;29;20183;-66
2021/04/04 08:26:05;;;;;;;2.85;1.20;;;18.30;51.30;;;;;;4898542;29;20169;-65
2021/04/04 08:28:48;;;;;;;4.18;1.00;;;18.40;51.10;;;;;;4896379;29;20208;-66
2021/04/04 08:31:31;;;;;;;2.38;1.05;;;18.60;50.90;;;;;;4897245;29;20636;-63
2021/04/04 08:34:07;;;;;;;3.13;1.10;;;18.80;50.50;;;;;;4880471;29;20278;-67
2021/04/04 08:36:40;;;;;;;3.63;1.25;;;19.10;50.20;;;;;;4896505;29;20175;-73
2021/04/04 08:39:06;;;;;;;2.10;1.17;;;19.40;49.60;;;;;;4897231;29;20184;-73
2021/04/04 08:41:33;;;;;;;3.40;1.30;;;19.60;49.00;;;;;;4896911;29;20214;-77
2021/04/04 08:44:20;;;;;;;3.53;1.23;;;19.80;49.40;;;;;;4879406;29;20177;-70
2021/04/04 08:46:48;;;;;;;2.00;1.00;;;19.90;49.20;;;;;;4892727;29;20197;-72
2021/04/04 08:49:14;;;;;;;4.00;1.13;;;19.90;48.40;;;;;;4877885;29;20217;-73
2021/04/04 08:51:41;;;;;;;2.88;1.50;;;19.90;48.40;;;;;;4878265;29;20652;-75
2021/04/04 08:54:18;;;;;;;1.77;1.10;;;20.00;48.40;;;;;;4862445;29;20188;-73
2021/04/04 08:56:45;;;;;;;1.20;1.05;;;20.00;48.40;;;;;;4877880;29;20169;-72
2021/04/04 08:59:11;;;;;;;3.05;1.92;;;20.00;48.40;;;;;;4858225;29;20527;-73
2021/04/04 09:01:38;;;;;;;2.08;1.30;;;20.00;48.40;;;;;;4880433;29;20179;-73
2021/04/04 09:04:05;;;;;;;2.42;1.23;;;20.00;48.40;;;;;;4895695;29;20172;-76
2021/04/04 09:06:36;;;;;;;1.92;1.20;;;20.00;48.40;;;;;;4873339;29;20184;-75
2021/04/04 09:09:13;;;;;;;1.48;0.98;;;19.90;48.40;;;;;;4858585;29;611541;-72
2021/04/04 09:11:38;;;;;;;2.20;1.00;;;19.90;48.40;;;;;;4847274;29;20306;-72
2021/04/04 09:14:04;;;;;;;1.75;0.90;;;19.90;48.50;;;;;;4863405;29;20177;-75
2021/04/04 09:16:29;;;;;;;3.75;1.13;;;19.90;48.60;;;;;;4844555;29;20184;-72
2021/04/04 09:18:55;;;;;;;2.42;0.90;;;19.90;48.60;;;;;;4871257;29;20253;-71
2021/04/04 09:21:21;;;;;;;2.38;1.15;;;19.90;48.60;;;;;;4898278;29;20177;-63
2021/04/04 09:23:50;;;;;;;1.58;0.80;;;19.80;48.60;;;;;;4898381;29;20637;-62
2021/04/04 09:26:18;;;;;;;3.67;1.27;;;19.90;48.50;;;;;;4866344;29;20582;-65
2021/04/04 09:28:44;;;;;;;4.22;1.40;;;19.90;48.50;;;;;;4881782;29;20213;-66
2021/04/04 09:31:24;;;;;;;2.28;1.00;;;20.00;48.50;;;;;;4865524;29;20553;-71
2021/04/04 09:33:57;;;;;;;1.52;1.05;;;20.10;48.30;;;;;;4866288;29;20197;-68
2021/04/04 09:36:22;;;;;;;3.38;1.10;;;20.10;48.30;;;;;;4866413;29;20264;-67
2021/04/04 09:38:48;;;;;;;2.75;0.90;;;20.10;48.30;;;;;;4865283;29;20256;-66
2021/04/04 09:41:14;;;;;;;1.10;0.95;;;20.10;48.30;;;;;;4865967;29;20224;-65
2021/04/04 09:43:56;;;;;;;2.63;0.90;;;20.10;48.40;;;;;;4865538;29;20618;-69
2021/04/04 09:46:22;;;;;;;3.85;0.80;;;20.10;48.40;;;;;;4881293;29;20251;-77
2021/04/04 09:48:47;;;;;;;1.73;0.90;;;20.10;48.40;;;;;;4881432;29;20739;-72
2021/04/04 09:51:15;;;;;;;1.67;1.23;;;20.10;48.40;;;;;;4881685;29;20183;-73
2021/04/04 09:53:45;;;;;;;2.25;1.20;;;19.90;48.60;;;;;;4880456;29;20540;-69
2021/04/04 09:56:10;;;;;;;1.83;0.85;;;19.80;48.80;;;;;;4881502;29;20172;-68
2021/04/04 09:58:40;;;;;;;3.10;0.95;;;19.70;48.90;;;;;;4897635;29;20246;-67
2021/04/04 10:01:23;;;;;;;2.55;1.20;;;19.60;49.10;;;;;;4880606;29;20201;-70
2021/04/04 10:03:59;;;;;;;0.77;0.70;;;19.60;49.20;;;;;;4881093;29;20172;-64
2021/04/04 10:06:26;;;;;;;2.55;1.00;;;19.60;49.20;;;;;;4865102;29;20528;-65
2021/04/04 10:08:52;;;;;;;2.92;1.35;;;19.70;49.30;;;;;;4865475;29;20359;-64
2021/04/04 10:11:19;;;;;;;3.90;0.73;;;19.70;49.20;;;;;;4881286;29;20208;-66
2021/04/04 10:13:44;;;;;;;2.22;0.80;;;19.70;49.30;;;;;;4864971;29;20223;-72
2021/04/04 10:16:23;;;;;;;2.28;0.93;;;19.80;49.20;;;;;;4880713;29;20615;-66
2021/04/04 10:19:16;;;;;;;1.15;0.70;;;19.80;49.10;;;;;;4866132;29;20619;-69
2021/04/04 10:21:56;;;;;;;1.30;0.70;;;19.90;49.10;;;;;;4896605;29;20200;-73
2021/04/04 10:24:28;;;;;;;1.70;0.93;;;19.90;48.90;;;;;;4849621;29;20184;-64
2021/04/04 10:27:20;;;;;;;4.93;1.10;;;19.90;49.10;;;;;;4880728;29;20541;-70
2021/04/04 10:29:47;;;;;;;4.30;0.90;;;19.80;49.20;;;;;;4865621;29;20554;-66
2021/04/04 10:32:13;;;;;;;3.90;0.93;;;19.70;49.30;;;;;;4865404;29;20172;-59
2021/04/04 10:34:45;;;;;;;4.07;1.02;;;19.60;49.30;;;;;;4896455;29;20192;-66
2021/04/04 10:37:11;;;;;;;2.95;0.90;;;19.60;49.50;;;;;;4865475;29;20251;-75
2021/04/04 10:39:37;;;;;;;3.28;0.98;;;19.60;49.60;;;;;;4880411;29;20217;-66
2021/04/04 10:42:15;;;;;;;3.88;1.10;;;19.60;49.60;;;;;;4880071;29;20177;-65
2021/04/04 10:44:41;;;;;;;3.17;0.90;;;19.60;49.50;;;;;;4896944;29;20179;-68
2021/04/04 10:47:22;;;;;;;3.65;1.00;;;19.60;49.60;;;;;;4865115;29;20184;-70
2021/04/04 10:49:49;;;;;;;1.30;1.00;;;19.60;49.40;;;;;;4880067;29;20671;-65
2021/04/04 10:52:14;;;;;;;2.13;0.90;;;19.70;49.50;;;;;;4865100;29;20185;-63
2021/04/04 10:54:41;;;;;;;3.95;0.80;;;19.70;49.40;;;;;;4897018;29;20241;-65
2021/04/04 10:57:07;;;;;;;3.33;1.00;;;19.70;49.50;;;;;;4898078;29;20176;-66
2021/04/04 10:59:33;;;;;;;3.60;0.88;;;19.60;49.60;;;;;;4900872;29;20190;-65
2021/04/04 11:01:59;;;;;;;1.77;0.50;;;19.60;49.90;;;;;;4868735;29;20255;-68
2021/04/04 11:04:25;;;;;;;4.47;0.82;;;19.50;49.90;;;;;;4867752;29;20172;-66
2021/04/04 11:06:51;;;;;;;2.85;0.50;;;19.50;50.20;;;;;;4868568;29;20648;-64
2021/04/04 11:09:16;;;;;;;3.28;0.90;;;19.50;50.20;;;;;;4859498;29;20231;-66
2021/04/04 11:11:42;;;;;;;2.50;0.93;;;19.50;50.30;;;;;;4886395;29;20207;-73
2021/04/04 11:14:07;;;;;;;3.35;0.88;;;19.50;50.20;;;;;;4887196;29;20188;-72
2021/04/04 11:16:33;;;;;;;3.00;0.80;;;19.60;50.10;;;;;;4886468;29;20178;-71
2021/04/04 11:18:59;;;;;;;4.32;1.00;;;19.60;49.90;;;;;;4871466;29;20176;-72
2021/04/04 11:21:25;;;;;;;3.92;0.95;;;19.40;49.90;;;;;;4886574;29;20283;-75
2021/04/04 11:23:50;;;;;;;3.33;1.10;;;19.40;50.00;;;;;;4902041;29;20240;-74
2021/04/04 11:26:22;;;;;;;3.10;0.70;;;19.30;50.00;;;;;;4886649;29;20304;-67
2021/04/04 11:29:07;;;;;;;2.72;0.80;;;19.30;50.10;;;;;;4901772;29;20306;-69
2021/04/04 11:31:32;;;;;;;4.00;0.88;;;19.30;50.20;;;;;;4901902;29;20224;-69
2021/04/04 11:34:34;;;;;;;2.35;0.77;;;19.30;50.20;;;;;;4886783;29;20583;-70
2021/04/04 11:37:04;;;;;;;3.92;1.08;;;19.30;50.10;;;;;;4902737;29;20558;-66
2021/04/04 11:39:30;;;;;;;1.35;0.90;;;19.30;50.10;;;;;;4886631;29;20231;-67
2021/04/04 11:42:00;;;;;;;2.42;0.70;;;19.30;49.90;;;;;;4902260;29;20172;-79
2021/04/04 11:44:38;;;;;;;2.28;0.60;;;19.30;50.00;;;;;;4885144;29;20204;-65
2021/04/04 11:47:05;;;;;;;1.17;0.70;;;19.30;49.90;;;;;;4901493;29;20175;-78
2021/04/04 11:49:31;;;;;;;2.10;1.13;;;19.30;49.90;;;;;;4901738;29;20258;-75
2021/04/04 11:52:00;;;;;;;1.30;0.68;;;19.30;49.90;;;;;;4917994;29;20267;-76
2021/04/04 11:54:56;;;;;;;1.83;0.85;;;19.20;49.90;;;;;;4901484;29;20227;-76
2021/04/04 11:57:26;;;;;;;0.75;0.55;;;19.20;50.00;;;;;;4885561;29;20188;-67
2021/04/04 11:59:52;;;;;;;2.38;0.80;;;19.20;50.10;;;;;;4902053;29;20210;-75
2021/04/04 12:02:21;;;;;;;1.10;0.70;;;19.20;50.10;;;;;;4919443;29;20172;-67
2021/04/04 12:05:03;;;;;;;3.28;0.80;;;19.20;50.10;;;;;;4902520;29;20180;-74
2021/04/04 12:07:28;;;;;;;3.92;0.93;;;19.20;50.00;;;;;;4885838;29;20227;-65
2021/04/04 12:09:54;;;;;;;1.02;0.70;;;19.30;50.00;;;;;;4874067;29;20331;-76
2021/04/04 12:12:20;;;;;;;2.35;0.73;;;19.30;49.90;;;;;;4883771;29;20244;-72
2021/04/04 12:14:50;;;;;;;1.58;0.68;;;19.40;49.80;;;;;;4882547;29;20181;-78
2021/04/04 12:17:16;;;;;;;0.93;0.60;;;19.40;49.70;;;;;;4868290;29;20259;-76
2021/04/04 12:19:42;;;;;;;0.98;0.70;;;19.30;49.70;;;;;;4882259;29;20268;-67
2021/04/04 12:22:08;;;;;;;0.68;0.68;;;19.30;49.70;;;;;;4867442;29;20273;-66
2021/04/04 12:24:50;;;;;;;0.90;0.60;;;19.30;49.80;;;;;;4899378;29;20684;-66
2021/04/04 12:27:19;;;;;;;2.13;0.70;;;19.30;49.80;;;;;;4882356;29;20300;-78
2021/04/04 12:29:49;;;;;;;1.70;0.70;;;19.30;49.90;;;;;;4882869;29;20207;-66
2021/04/04 12:32:28;;;;;;;2.88;0.80;;;19.30;49.90;;;;;;4867908;29;20617;-66
2021/04/04 12:34:59;;;;;;;1.08;0.55;;;19.30;49.90;;;;;;4882264;29;20663;-67
2021/04/04 12:37:26;;;;;;;1.05;0.73;;;19.30;49.90;;;;;;4868053;29;20172;-66
2021/04/04 12:39:52;;;;;;;2.45;0.73;;;19.30;49.80;;;;;;4882660;29;20260;-66
2021/04/04 12:42:19;;;;;;;1.92;0.93;;;19.40;49.70;;;;;;4882143;29;20271;-67
2021/04/04 12:44:47;;;;;;;1.48;0.80;;;19.40;49.60;;;;;;4899433;29;20176;-80
2021/04/04 12:47:14;;;;;;;0.95;0.65;;;19.40;49.60;;;;;;4899621;29;20516;-67
2021/04/04 12:49:40;;;;;;;0.60;0.60;;;19.40;49.50;;;;;;4866473;29;20201;-67
2021/04/04 12:52:06;;;;;;;1.45;0.70;;;19.40;49.50;;;;;;4882540;29;20538;-66
2021/04/04 12:54:32;;;;;;;1.48;1.00;;;19.30;49.60;;;;;;4898878;29;20235;-66
2021/04/04 12:56:58;;;;;;;1.75;0.77;;;19.30;49.70;;;;;;4881769;29;20176;-66
2021/04/04 12:59:23;;;;;;;1.67;0.93;;;19.40;49.70;;;;;;4866735;29;20278;-67
2021/04/04 13:01:49;;;;;;;2.88;0.95;;;19.40;49.70;;;;;;4867299;29;20609;-67
2021/04/04 13:04:19;;;;;;;0.75;0.68;;;19.40;49.60;;;;;;4866092;29;20187;-67
2021/04/04 13:06:45;;;;;;;1.88;0.90;;;19.40;49.60;;;;;;4899490;29;20177;-67
2021/04/04 13:09:12;;;;;;;0.73;0.60;;;19.40;49.50;;;;;;4881652;29;20727;-66